Marine Blue — 3ECO4 — position and weather

sailwx.info

Track history (hours):
 
Tides and Currents Weather Stations Pressure Air Temp Water Temp Dewpoint Dewpoint Depression Visibility Wind Speed Wind Dir Waves Ship Positions

Marine Blue

Last reported at 2016-Jul-20 10:15 UTC. Time now 2016-Jul-26 00:45 UTC.
Position N 34°01' E 134°57'.

Length 125 m; draft 6 m.

Type: Cargo ship. MMSI: 371414000.

Date/timePositionNaut miles runAvg speedWind from/ knotsBaromVisibWave heightAir tempDewpointWater temp
2016-Jul-20 10:15N 34°01' E 134°57'912.4
2016-Jul-20 09:33N 34°09' E 134°57'1312.4
2016-Jul-20 08:32N 34°22' E 135°01'1212.8
2016-Jul-20 07:33N 34°29' E 135°13'9 8.9
2016-Jul-20 06:34N 34°31' E 135°23'0 0.1
2016-Jul-20 04:29N 34°31' E 135°23'0 0.0
2016-Jul-20 03:17N 34°31' E 135°23'0 0.0
2016-Jul-20 02:29N 34°31' E 135°23'0 0.0
2016-Jul-20 01:29N 34°31' E 135°23'0 0.0
2016-Jul-20 00:29N 34°31' E 135°23'0 0.0
2016-Jul-19 23:29N 34°31' E 135°23'0 0.0
2016-Jul-19 22:29N 34°31' E 135°23'0 0.0
2016-Jul-19 21:29N 34°31' E 135°23'0 0.0
2016-Jul-19 20:29N 34°31' E 135°23'0 0.0
2016-Jul-19 19:23N 34°31' E 135°23'0 0.0
2016-Jul-19 18:29N 34°31' E 135°23'0 0.0
2016-Jul-19 17:29N 34°31' E 135°23'0 0.0
2016-Jul-19 16:23N 34°31' E 135°23'0 0.0
2016-Jul-19 15:29N 34°31' E 135°23'0 0.0
2016-Jul-19 14:28N 34°31' E 135°23'0 0.0
2016-Jul-19 13:28N 34°31' E 135°23'0 0.0
2016-Jul-19 12:28N 34°31' E 135°23'0 0.0
2016-Jul-19 11:28N 34°31' E 135°23'0 0.0
2016-Jul-19 10:22N 34°31' E 135°23'0 0.0
2016-Jul-19 09:28N 34°31' E 135°23'0 0.0
2016-Jul-19 08:28N 34°31' E 135°23'0 0.0
2016-Jul-19 07:28N 34°31' E 135°23'0 0.0
2016-Jul-19 04:28N 34°31' E 135°23'0 0.0
2016-Jul-19 03:10N 34°31' E 135°23'0 0.0
2016-Jul-18 18:25N 34°31' E 135°23'0 0.0
2016-Jul-18 09:19N 34°31' E 135°23'0 0.0
2016-Jul-18 00:12N 34°31' E 135°23'0 0.0
2016-Jul-17 23:12N 34°31' E 135°23'0 0.0
2016-Jul-17 04:24N 34°31' E 135°23'0 0.0
2016-Jul-17 03:12N 34°31' E 135°23'0 0.0
2016-Jul-16 20:30N 34°31' E 135°23'0 0.0
2016-Jul-16 14:05N 34°31' E 135°23'0 0.0
2016-Jul-16 13:29N 34°31' E 135°23'0 0.0
2016-Jul-16 12:23N 34°31' E 135°23'0 0.0
2016-Jul-16 11:17N 34°31' E 135°23'0 0.0
2016-Jul-16 07:29N 34°31' E 135°23'0 0.0
2016-Jul-16 02:29N 34°31' E 135°23'0 0.0
2016-Jul-14 15:10N 34°31' E 135°23'0 0.0
2016-Jul-14 14:28N 34°31' E 135°23'0 0.0
2016-Jul-14 02:22N 34°31' E 135°23'0 0.0
2016-Jul-13 04:33N 34°31' E 135°23'0 0.0
2016-Jul-13 03:33N 34°31' E 135°23'0 0.0
2016-Jul-13 02:27N 34°31' E 135°23'0 0.0
2016-Jul-13 01:33N 34°31' E 135°23'0 0.0
2016-Jul-12 12:33N 34°31' E 135°23'0 0.0
2016-Jul-12 11:33N 34°31' E 135°23'0 0.0
2016-Jul-12 10:21N 34°31' E 135°23'0 0.0
2016-Jul-12 09:33N 34°31' E 135°23'0 0.0
2016-Jul-12 01:08N 34°31' E 135°23'2 3.9
2016-Jul-12 00:33N 34°33' E 135°22'8 7.7
2016-Jul-11 23:33N 34°30' E 135°13'8 8.5
2016-Jul-11 22:33N 34°23' E 135°06'10 9.7
2016-Jul-11 21:33N 34°16' E 134°59'1312.3
2016-Jul-11 20:31N 34°03' E 134°59'  
Track history (hours):
 
Tides and Currents Weather Stations Pressure Air Temp Water Temp Dewpoint Dewpoint Depression Visibility Wind Speed Wind Dir Waves Ship Positions

Marine Blue

Last reported at 2016-Jul-20 10:15 UTC. Time now 2016-Jul-26 00:45 UTC.
Position N 34°01' E 134°57'.

Length 125 m; draft 6 m.

Type: Cargo ship. MMSI: 371414000.

Date/timePositionNaut miles runAvg speedWind from/ knotsBaromVisibWave heightAir tempDewpointWater temp
2016-Jul-20 10:15N 34°01' E 134°57'912.4
2016-Jul-20 09:33N 34°09' E 134°57'1312.4
2016-Jul-20 08:32N 34°22' E 135°01'1212.8
2016-Jul-20 07:33N 34°29' E 135°13'9 8.9
2016-Jul-20 06:34N 34°31' E 135°23'0 0.1
2016-Jul-20 04:29N 34°31' E 135°23'0 0.0
2016-Jul-20 03:17N 34°31' E 135°23'0 0.0
2016-Jul-20 02:29N 34°31' E 135°23'0 0.0
2016-Jul-20 01:29N 34°31' E 135°23'0 0.0
2016-Jul-20 00:29N 34°31' E 135°23'0 0.0
2016-Jul-19 23:29N 34°31' E 135°23'0 0.0
2016-Jul-19 22:29N 34°31' E 135°23'0 0.0
2016-Jul-19 21:29N 34°31' E 135°23'0 0.0
2016-Jul-19 20:29N 34°31' E 135°23'0 0.0
2016-Jul-19 19:23N 34°31' E 135°23'0 0.0
2016-Jul-19 18:29N 34°31' E 135°23'0 0.0
2016-Jul-19 17:29N 34°31' E 135°23'0 0.0
2016-Jul-19 16:23N 34°31' E 135°23'0 0.0
2016-Jul-19 15:29N 34°31' E 135°23'0 0.0
2016-Jul-19 14:28N 34°31' E 135°23'0 0.0
2016-Jul-19 13:28N 34°31' E 135°23'0 0.0
2016-Jul-19 12:28N 34°31' E 135°23'0 0.0
2016-Jul-19 11:28N 34°31' E 135°23'0 0.0
2016-Jul-19 10:22N 34°31' E 135°23'0 0.0
2016-Jul-19 09:28N 34°31' E 135°23'0 0.0
2016-Jul-19 08:28N 34°31' E 135°23'0 0.0
2016-Jul-19 07:28N 34°31' E 135°23'0 0.0
2016-Jul-19 04:28N 34°31' E 135°23'0 0.0
2016-Jul-19 03:10N 34°31' E 135°23'0 0.0
2016-Jul-18 18:25N 34°31' E 135°23'0 0.0
2016-Jul-18 09:19N 34°31' E 135°23'0 0.0
2016-Jul-18 00:12N 34°31' E 135°23'0 0.0
2016-Jul-17 23:12N 34°31' E 135°23'0 0.0
2016-Jul-17 04:24N 34°31' E 135°23'0 0.0
2016-Jul-17 03:12N 34°31' E 135°23'0 0.0
2016-Jul-16 20:30N 34°31' E 135°23'0 0.0
2016-Jul-16 14:05N 34°31' E 135°23'0 0.0
2016-Jul-16 13:29N 34°31' E 135°23'0 0.0
2016-Jul-16 12:23N 34°31' E 135°23'0 0.0
2016-Jul-16 11:17N 34°31' E 135°23'0 0.0
2016-Jul-16 07:29N 34°31' E 135°23'0 0.0
2016-Jul-16 02:29N 34°31' E 135°23'0 0.0
2016-Jul-14 15:10N 34°31' E 135°23'0 0.0
2016-Jul-14 14:28N 34°31' E 135°23'0 0.0
2016-Jul-14 02:22N 34°31' E 135°23'0 0.0
2016-Jul-13 04:33N 34°31' E 135°23'0 0.0
2016-Jul-13 03:33N 34°31' E 135°23'0 0.0
2016-Jul-13 02:27N 34°31' E 135°23'0 0.0
2016-Jul-13 01:33N 34°31' E 135°23'0 0.0
2016-Jul-12 12:33N 34°31' E 135°23'0 0.0
2016-Jul-12 11:33N 34°31' E 135°23'0 0.0
2016-Jul-12 10:21N 34°31' E 135°23'0 0.0
2016-Jul-12 09:33N 34°31' E 135°23'0 0.0
2016-Jul-12 01:08N 34°31' E 135°23'2 3.9
2016-Jul-12 00:33N 34°33' E 135°22'8 7.7
2016-Jul-11 23:33N 34°30' E 135°13'8 8.5
2016-Jul-11 22:33N 34°23' E 135°06'10 9.7
2016-Jul-11 21:33N 34°16' E 134°59'1312.3
2016-Jul-11 20:31N 34°03' E 134°59'  

Dump ship's entire track history